Terminal Aerodrome Forecast
Issued by NWS

Home | Current Version | Previous Version | Text Only | Print | Product List | Glossary On
Versions: 1 2 3 4 5 6 7 8 9 10 11 12 13 14 15 16 17 18 19 20 21
000
FTUS45 KGJT 202320
TAFMTJ
TAF
KMTJ 202320Z 2100/2124 35005KT P6SM BKN100
     FM210100 14006KT P6SM SCT100
     FM211200 14005KT P6SM SCT200
     FM211800 33004KT P6SM BKN200=

USA.gov is the U.S. government's official web portal to all federal, state and local government web resources and services.